sensor_id;sensor_type;location;lat;lon;timestamp;P1;durP1;ratioP1;P2;durP2;ratioP2
5195;SDS011;2617;51.006;12.436;2023-07-08T00:03:23;5.80;;;3.73;;
5195;SDS011;2617;51.006;12.436;2023-07-08T00:08:25;5.63;;;3.87;;
5195;SDS011;2617;51.006;12.436;2023-07-08T00:13:27;5.27;;;3.93;;
5195;SDS011;2617;51.006;12.436;2023-07-08T00:18:29;3.70;;;3.27;;
5195;SDS011;2617;51.006;12.436;2023-07-08T00:23:31;4.20;;;3.60;;
5195;SDS011;2617;51.006;12.436;2023-07-08T00:28:33;7.30;;;3.90;;
5195;SDS011;2617;51.006;12.436;2023-07-08T00:33:35;5.57;;;4.07;;
5195;SDS011;2617;51.006;12.436;2023-07-08T00:38:37;5.60;;;3.77;;
5195;SDS011;2617;51.006;12.436;2023-07-08T00:43:43;7.15;;;4.95;;
5195;SDS011;2617;51.006;12.436;2023-07-08T00:48:44;8.10;;;4.85;;
5195;SDS011;2617;51.006;12.436;2023-07-08T00:53:46;7.43;;;5.47;;
5195;SDS011;2617;51.006;12.436;2023-07-08T00:58:49;6.37;;;5.77;;
5195;SDS011;2617;51.006;12.436;2023-07-08T01:03:53;10.27;;;6.73;;
5195;SDS011;2617;51.006;12.436;2023-07-08T01:08:53;6.20;;;5.53;;
5195;SDS011;2617;51.006;12.436;2023-07-08T01:13:56;8.13;;;6.07;;
5195;SDS011;2617;51.006;12.436;2023-07-08T01:18:57;16.60;;;5.68;;
5195;SDS011;2617;51.006;12.436;2023-07-08T01:23:59;5.17;;;4.30;;
5195;SDS011;2617;51.006;12.436;2023-07-08T01:29:02;17.03;;;4.40;;
5195;SDS011;2617;51.006;12.436;2023-07-08T01:34:04;6.68;;;3.78;;
5195;SDS011;2617;51.006;12.436;2023-07-08T01:39:05;4.25;;;3.60;;
5195;SDS011;2617;51.006;12.436;2023-07-08T01:49:35;4.43;;;3.33;;
5195;SDS011;2617;51.006;12.436;2023-07-08T01:54:36;5.40;;;3.53;;
5195;SDS011;2617;51.006;12.436;2023-07-08T01:59:38;7.78;;;3.58;;
5195;SDS011;2617;51.006;12.436;2023-07-08T02:04:40;5.40;;;3.90;;
5195;SDS011;2617;51.006;12.436;2023-07-08T02:09:41;4.28;;;3.87;;
5195;SDS011;2617;51.006;12.436;2023-07-08T02:14:43;3.80;;;3.40;;
5195;SDS011;2617;51.006;12.436;2023-07-08T02:19:45;4.27;;;3.70;;
5195;SDS011;2617;51.006;12.436;2023-07-08T02:24:46;6.53;;;3.70;;
5195;SDS011;2617;51.006;12.436;2023-07-08T02:29:49;6.03;;;3.90;;
5195;SDS011;2617;51.006;12.436;2023-07-08T02:34:51;6.30;;;4.47;;
5195;SDS011;2617;51.006;12.436;2023-07-08T02:39:52;4.93;;;3.80;;
5195;SDS011;2617;51.006;12.436;2023-07-08T02:44:54;4.33;;;3.93;;
5195;SDS011;2617;51.006;12.436;2023-07-08T02:49:56;4.60;;;3.57;;
5195;SDS011;2617;51.006;12.436;2023-07-08T02:54:58;6.83;;;3.37;;
5195;SDS011;2617;51.006;12.436;2023-07-08T03:00:00;6.30;;;3.60;;
5195;SDS011;2617;51.006;12.436;2023-07-08T03:05:02;8.18;;;4.28;;
5195;SDS011;2617;51.006;12.436;2023-07-08T03:10:04;3.97;;;3.63;;
5195;SDS011;2617;51.006;12.436;2023-07-08T03:15:06;4.70;;;3.57;;
5195;SDS011;2617;51.006;12.436;2023-07-08T03:20:08;3.85;;;3.55;;
5195;SDS011;2617;51.006;12.436;2023-07-08T03:25:11;5.03;;;3.83;;
5195;SDS011;2617;51.006;12.436;2023-07-08T03:30:13;4.80;;;3.63;;
5195;SDS011;2617;51.006;12.436;2023-07-08T03:35:16;3.97;;;3.60;;
5195;SDS011;2617;51.006;12.436;2023-07-08T03:40:18;6.70;;;4.32;;
5195;SDS011;2617;51.006;12.436;2023-07-08T03:45:20;3.63;;;3.33;;
5195;SDS011;2617;51.006;12.436;2023-07-08T03:50:22;5.30;;;3.77;;
5195;SDS011;2617;51.006;12.436;2023-07-08T03:55:24;4.70;;;4.20;;
5195;SDS011;2617;51.006;12.436;2023-07-08T04:00:26;7.83;;;3.23;;
5195;SDS011;2617;51.006;12.436;2023-07-08T04:05:28;4.60;;;4.20;;
5195;SDS011;2617;51.006;12.436;2023-07-08T04:10:30;4.77;;;3.50;;
5195;SDS011;2617;51.006;12.436;2023-07-08T04:15:32;7.10;;;3.87;;
5195;SDS011;2617;51.006;12.436;2023-07-08T04:20:34;7.67;;;4.20;;
5195;SDS011;2617;51.006;12.436;2023-07-08T04:25:37;3.67;;;3.00;;
5195;SDS011;2617;51.006;12.436;2023-07-08T04:30:38;4.17;;;3.50;;
5195;SDS011;2617;51.006;12.436;2023-07-08T04:35:41;4.72;;;3.30;;
5195;SDS011;2617;51.006;12.436;2023-07-08T04:40:43;5.63;;;3.40;;
5195;SDS011;2617;51.006;12.436;2023-07-08T04:45:47;6.85;;;3.65;;
5195;SDS011;2617;51.006;12.436;2023-07-08T04:50:49;3.80;;;3.43;;
5195;SDS011;2617;51.006;12.436;2023-07-08T04:55:50;5.33;;;3.50;;
5195;SDS011;2617;51.006;12.436;2023-07-08T05:00:51;8.83;;;4.17;;
5195;SDS011;2617;51.006;12.436;2023-07-08T05:05:53;4.60;;;4.00;;
5195;SDS011;2617;51.006;12.436;2023-07-08T05:10:56;5.23;;;4.53;;
5195;SDS011;2617;51.006;12.436;2023-07-08T05:15:58;10.17;;;3.90;;
5195;SDS011;2617;51.006;12.436;2023-07-08T05:21:00;5.77;;;4.60;;
5195;SDS011;2617;51.006;12.436;2023-07-08T05:26:02;6.33;;;3.70;;
5195;SDS011;2617;51.006;12.436;2023-07-08T05:31:04;10.75;;;4.62;;
5195;SDS011;2617;51.006;12.436;2023-07-08T05:36:06;5.90;;;3.83;;
5195;SDS011;2617;51.006;12.436;2023-07-08T05:41:07;5.40;;;4.53;;
5195;SDS011;2617;51.006;12.436;2023-07-08T05:46:10;4.40;;;3.90;;
5195;SDS011;2617;51.006;12.436;2023-07-08T05:51:12;9.10;;;4.13;;
5195;SDS011;2617;51.006;12.436;2023-07-08T05:56:14;5.20;;;3.60;;
5195;SDS011;2617;51.006;12.436;2023-07-08T06:01:16;7.00;;;4.23;;
5195;SDS011;2617;51.006;12.436;2023-07-08T06:06:18;7.50;;;4.70;;
5195;SDS011;2617;51.006;12.436;2023-07-08T06:11:20;6.33;;;4.23;;
5195;SDS011;2617;51.006;12.436;2023-07-08T06:16:21;6.20;;;4.10;;
5195;SDS011;2617;51.006;12.436;2023-07-08T06:21:23;4.37;;;3.97;;
5195;SDS011;2617;51.006;12.436;2023-07-08T06:26:25;6.47;;;4.90;;
5195;SDS011;2617;51.006;12.436;2023-07-08T06:31:28;7.73;;;4.00;;
5195;SDS011;2617;51.006;12.436;2023-07-08T06:36:29;6.87;;;3.60;;
5195;SDS011;2617;51.006;12.436;2023-07-08T06:41:31;5.40;;;3.70;;
5195;SDS011;2617;51.006;12.436;2023-07-08T06:46:33;9.40;;;4.53;;
5195;SDS011;2617;51.006;12.436;2023-07-08T06:51:35;7.23;;;3.90;;
5195;SDS011;2617;51.006;12.436;2023-07-08T06:56:38;3.90;;;3.50;;
5195;SDS011;2617;51.006;12.436;2023-07-08T07:01:39;6.50;;;4.03;;
5195;SDS011;2617;51.006;12.436;2023-07-08T07:06:41;5.90;;;4.00;;
5195;SDS011;2617;51.006;12.436;2023-07-08T07:11:43;3.97;;;3.53;;
5195;SDS011;2617;51.006;12.436;2023-07-08T07:16:45;3.50;;;3.15;;
5195;SDS011;2617;51.006;12.436;2023-07-08T07:21:46;7.10;;;4.00;;
5195;SDS011;2617;51.006;12.436;2023-07-08T07:26:48;4.93;;;3.90;;
5195;SDS011;2617;51.006;12.436;2023-07-08T07:31:50;4.27;;;3.10;;
5195;SDS011;2617;51.006;12.436;2023-07-08T07:36:52;8.43;;;4.20;;
5195;SDS011;2617;51.006;12.436;2023-07-08T07:41:53;4.53;;;3.30;;
5195;SDS011;2617;51.006;12.436;2023-07-08T07:46:55;4.70;;;3.10;;
5195;SDS011;2617;51.006;12.436;2023-07-08T07:51:58;5.63;;;3.43;;
5195;SDS011;2617;51.006;12.436;2023-07-08T07:57:00;7.00;;;2.90;;
5195;SDS011;2617;51.006;12.436;2023-07-08T08:02:02;5.20;;;3.77;;
5195;SDS011;2617;51.006;12.436;2023-07-08T08:07:04;4.50;;;3.27;;
5195;SDS011;2617;51.006;12.436;2023-07-08T08:12:07;3.60;;;3.30;;
5195;SDS011;2617;51.006;12.436;2023-07-08T08:17:10;4.83;;;3.43;;
5195;SDS011;2617;51.006;12.436;2023-07-08T08:22:11;4.00;;;3.57;;
5195;SDS011;2617;51.006;12.436;2023-07-08T08:27:13;3.37;;;3.07;;
5195;SDS011;2617;51.006;12.436;2023-07-08T08:32:16;5.50;;;3.77;;
5195;SDS011;2617;51.006;12.436;2023-07-08T08:37:17;5.12;;;3.30;;
5195;SDS011;2617;51.006;12.436;2023-07-08T08:42:26;3.90;;;3.23;;
5195;SDS011;2617;51.006;12.436;2023-07-08T08:47:31;5.10;;;3.90;;
5195;SDS011;2617;51.006;12.436;2023-07-08T08:52:36;4.27;;;3.77;;
5195;SDS011;2617;51.006;12.436;2023-07-08T08:57:45;6.53;;;3.85;;
5195;SDS011;2617;51.006;12.436;2023-07-08T09:02:51;7.10;;;4.03;;
5195;SDS011;2617;51.006;12.436;2023-07-08T09:13:15;5.05;;;3.75;;
5195;SDS011;2617;51.006;12.436;2023-07-08T09:18:20;4.00;;;3.60;;
5195;SDS011;2617;51.006;12.436;2023-07-08T09:23:22;6.43;;;3.50;;
5195;SDS011;2617;51.006;12.436;2023-07-08T09:28:22;4.10;;;3.33;;
5195;SDS011;2617;51.006;12.436;2023-07-08T09:33:24;4.60;;;3.37;;
5195;SDS011;2617;51.006;12.436;2023-07-08T09:38:26;5.43;;;3.43;;
5195;SDS011;2617;51.006;12.436;2023-07-08T09:43:34;3.80;;;3.50;;
5195;SDS011;2617;51.006;12.436;2023-07-08T09:48:33;7.37;;;4.00;;
5195;SDS011;2617;51.006;12.436;2023-07-08T09:53:32;5.97;;;3.42;;
5195;SDS011;2617;51.006;12.436;2023-07-08T09:58:34;3.40;;;3.10;;
5195;SDS011;2617;51.006;12.436;2023-07-08T10:03:35;3.43;;;3.13;;
5195;SDS011;2617;51.006;12.436;2023-07-08T10:08:40;4.90;;;3.67;;
5195;SDS011;2617;51.006;12.436;2023-07-08T10:13:41;5.72;;;3.60;;
5195;SDS011;2617;51.006;12.436;2023-07-08T10:18:43;4.10;;;3.00;;
5195;SDS011;2617;51.006;12.436;2023-07-08T10:24:00;6.97;;;3.45;;
5195;SDS011;2617;51.006;12.436;2023-07-08T10:34:34;8.03;;;3.30;;
5195;SDS011;2617;51.006;12.436;2023-07-08T10:39:55;3.87;;;3.47;;
5195;SDS011;2617;51.006;12.436;2023-07-08T10:44:58;5.40;;;3.33;;
5195;SDS011;2617;51.006;12.436;2023-07-08T10:50:07;6.30;;;4.10;;
5195;SDS011;2617;51.006;12.436;2023-07-08T10:55:14;6.75;;;3.20;;
5195;SDS011;2617;51.006;12.436;2023-07-08T11:05:40;3.90;;;3.43;;
5195;SDS011;2617;51.006;12.436;2023-07-08T11:10:42;4.43;;;3.57;;
5195;SDS011;2617;51.006;12.436;2023-07-08T11:15:46;4.73;;;3.03;;
5195;SDS011;2617;51.006;12.436;2023-07-08T11:20:50;4.57;;;3.92;;
5195;SDS011;2617;51.006;12.436;2023-07-08T11:25:54;3.93;;;3.30;;
5195;SDS011;2617;51.006;12.436;2023-07-08T11:30:54;4.00;;;3.30;;
5195;SDS011;2617;51.006;12.436;2023-07-08T11:35:56;4.00;;;3.20;;
5195;SDS011;2617;51.006;12.436;2023-07-08T11:41:01;4.23;;;3.17;;
5195;SDS011;2617;51.006;12.436;2023-07-08T11:46:04;5.63;;;3.30;;
5195;SDS011;2617;51.006;12.436;2023-07-08T11:51:04;5.07;;;3.93;;
5195;SDS011;2617;51.006;12.436;2023-07-08T11:56:19;5.20;;;3.30;;
5195;SDS011;2617;51.006;12.436;2023-07-08T12:01:23;3.97;;;3.20;;
5195;SDS011;2617;51.006;12.436;2023-07-08T12:11:44;4.45;;;3.90;;
5195;SDS011;2617;51.006;12.436;2023-07-08T12:16:45;6.68;;;3.53;;
5195;SDS011;2617;51.006;12.436;2023-07-08T12:21:47;7.20;;;3.60;;
5195;SDS011;2617;51.006;12.436;2023-07-08T12:26:48;3.65;;;3.35;;
5195;SDS011;2617;51.006;12.436;2023-07-08T12:31:50;3.80;;;2.93;;
5195;SDS011;2617;51.006;12.436;2023-07-08T12:36:52;3.87;;;3.25;;
5195;SDS011;2617;51.006;12.436;2023-07-08T12:41:54;3.75;;;3.45;;
5195;SDS011;2617;51.006;12.436;2023-07-08T12:47:00;4.13;;;3.40;;
5195;SDS011;2617;51.006;12.436;2023-07-08T12:51:59;4.47;;;3.77;;
5195;SDS011;2617;51.006;12.436;2023-07-08T12:57:00;4.10;;;3.40;;
5195;SDS011;2617;51.006;12.436;2023-07-08T13:02:02;3.77;;;3.30;;
5195;SDS011;2617;51.006;12.436;2023-07-08T13:07:04;4.57;;;3.60;;
5195;SDS011;2617;51.006;12.436;2023-07-08T13:12:13;4.65;;;3.60;;
5195;SDS011;2617;51.006;12.436;2023-07-08T13:17:14;4.33;;;3.93;;
5195;SDS011;2617;51.006;12.436;2023-07-08T13:22:16;3.57;;;3.27;;
5195;SDS011;2617;51.006;12.436;2023-07-08T13:27:22;4.60;;;2.97;;
5195;SDS011;2617;51.006;12.436;2023-07-08T13:32:29;4.83;;;3.20;;
5195;SDS011;2617;51.006;12.436;2023-07-08T13:37:30;4.77;;;3.37;;
5195;SDS011;2617;51.006;12.436;2023-07-08T13:42:32;3.47;;;3.13;;
5195;SDS011;2617;51.006;12.436;2023-07-08T13:47:34;4.20;;;3.37;;
5195;SDS011;2617;51.006;12.436;2023-07-08T13:52:36;4.35;;;3.33;;
5195;SDS011;2617;51.006;12.436;2023-07-08T13:57:39;4.37;;;3.40;;
5195;SDS011;2617;51.006;12.436;2023-07-08T14:02:42;4.75;;;3.20;;
5195;SDS011;2617;51.006;12.436;2023-07-08T14:07:44;3.37;;;3.07;;
5195;SDS011;2617;51.006;12.436;2023-07-08T14:12:46;3.80;;;3.37;;
5195;SDS011;2617;51.006;12.436;2023-07-08T14:17:49;4.20;;;3.28;;
5195;SDS011;2617;51.006;12.436;2023-07-08T14:22:51;5.00;;;4.25;;
5195;SDS011;2617;51.006;12.436;2023-07-08T14:27:52;3.55;;;3.20;;
5195;SDS011;2617;51.006;12.436;2023-07-08T14:32:54;3.37;;;3.08;;
5195;SDS011;2617;51.006;12.436;2023-07-08T14:37:56;5.20;;;3.60;;
5195;SDS011;2617;51.006;12.436;2023-07-08T14:42:59;4.77;;;3.47;;
5195;SDS011;2617;51.006;12.436;2023-07-08T14:48:00;4.30;;;3.78;;
5195;SDS011;2617;51.006;12.436;2023-07-08T14:53:01;6.32;;;3.08;;
5195;SDS011;2617;51.006;12.436;2023-07-08T14:58:03;6.12;;;4.12;;
5195;SDS011;2617;51.006;12.436;2023-07-08T15:03:06;3.62;;;3.22;;
5195;SDS011;2617;51.006;12.436;2023-07-08T15:08:08;3.77;;;3.47;;
5195;SDS011;2617;51.006;12.436;2023-07-08T15:13:09;3.95;;;3.50;;
5195;SDS011;2617;51.006;12.436;2023-07-08T15:18:12;3.73;;;3.27;;
5195;SDS011;2617;51.006;12.436;2023-07-08T15:23:13;4.00;;;3.67;;
5195;SDS011;2617;51.006;12.436;2023-07-08T15:28:18;4.07;;;3.67;;
5195;SDS011;2617;51.006;12.436;2023-07-08T15:33:20;4.37;;;3.47;;
5195;SDS011;2617;51.006;12.436;2023-07-08T15:38:21;4.70;;;3.20;;
5195;SDS011;2617;51.006;12.436;2023-07-08T15:43:24;3.30;;;3.00;;
5195;SDS011;2617;51.006;12.436;2023-07-08T15:48:26;4.78;;;3.67;;
5195;SDS011;2617;51.006;12.436;2023-07-08T15:53:28;4.07;;;3.67;;
5195;SDS011;2617;51.006;12.436;2023-07-08T15:58:31;5.90;;;3.95;;
5195;SDS011;2617;51.006;12.436;2023-07-08T16:03:34;3.83;;;3.50;;
5195;SDS011;2617;51.006;12.436;2023-07-08T16:08:34;8.10;;;4.23;;
5195;SDS011;2617;51.006;12.436;2023-07-08T16:13:38;7.87;;;3.72;;
5195;SDS011;2617;51.006;12.436;2023-07-08T16:18:40;9.27;;;3.50;;
5195;SDS011;2617;51.006;12.436;2023-07-08T16:23:41;4.90;;;3.27;;
5195;SDS011;2617;51.006;12.436;2023-07-08T16:28:43;5.73;;;4.53;;
5195;SDS011;2617;51.006;12.436;2023-07-08T16:33:46;5.93;;;3.83;;
5195;SDS011;2617;51.006;12.436;2023-07-08T16:38:48;4.17;;;3.77;;
5195;SDS011;2617;51.006;12.436;2023-07-08T16:43:50;5.40;;;3.73;;
5195;SDS011;2617;51.006;12.436;2023-07-08T16:48:52;4.47;;;3.62;;
5195;SDS011;2617;51.006;12.436;2023-07-08T16:53:56;3.70;;;3.40;;
5195;SDS011;2617;51.006;12.436;2023-07-08T16:58:58;5.50;;;3.13;;
5195;SDS011;2617;51.006;12.436;2023-07-08T17:04:00;3.87;;;3.47;;
5195;SDS011;2617;51.006;12.436;2023-07-08T17:09:02;4.03;;;3.63;;
5195;SDS011;2617;51.006;12.436;2023-07-08T17:14:04;5.30;;;3.87;;
5195;SDS011;2617;51.006;12.436;2023-07-08T17:19:07;6.17;;;4.97;;
5195;SDS011;2617;51.006;12.436;2023-07-08T17:24:08;8.13;;;5.10;;
5195;SDS011;2617;51.006;12.436;2023-07-08T17:29:13;3.60;;;3.30;;
5195;SDS011;2617;51.006;12.436;2023-07-08T17:34:20;6.83;;;3.30;;
5195;SDS011;2617;51.006;12.436;2023-07-08T17:39:21;5.00;;;3.83;;
5195;SDS011;2617;51.006;12.436;2023-07-08T17:44:23;5.07;;;3.80;;
5195;SDS011;2617;51.006;12.436;2023-07-08T17:49:25;8.40;;;3.73;;
5195;SDS011;2617;51.006;12.436;2023-07-08T17:54:27;5.10;;;3.30;;
5195;SDS011;2617;51.006;12.436;2023-07-08T17:59:29;6.00;;;3.10;;
5195;SDS011;2617;51.006;12.436;2023-07-08T18:04:31;4.77;;;3.60;;
5195;SDS011;2617;51.006;12.436;2023-07-08T18:09:33;5.90;;;3.77;;
5195;SDS011;2617;51.006;12.436;2023-07-08T18:14:35;3.80;;;3.50;;
5195;SDS011;2617;51.006;12.436;2023-07-08T18:19:37;3.50;;;3.30;;
5195;SDS011;2617;51.006;12.436;2023-07-08T18:24:39;3.90;;;3.50;;
5195;SDS011;2617;51.006;12.436;2023-07-08T18:29:41;5.50;;;3.33;;
5195;SDS011;2617;51.006;12.436;2023-07-08T18:34:43;7.72;;;3.70;;
5195;SDS011;2617;51.006;12.436;2023-07-08T18:39:45;6.15;;;3.45;;
5195;SDS011;2617;51.006;12.436;2023-07-08T18:44:47;4.20;;;3.53;;
5195;SDS011;2617;51.006;12.436;2023-07-08T18:49:50;9.63;;;3.50;;
5195;SDS011;2617;51.006;12.436;2023-07-08T18:54:51;4.97;;;3.72;;
5195;SDS011;2617;51.006;12.436;2023-07-08T18:59:54;5.20;;;4.13;;
5195;SDS011;2617;51.006;12.436;2023-07-08T19:04:56;4.20;;;3.12;;
5195;SDS011;2617;51.006;12.436;2023-07-08T19:09:57;9.33;;;3.30;;
5195;SDS011;2617;51.006;12.436;2023-07-08T19:14:59;4.27;;;3.47;;
5195;SDS011;2617;51.006;12.436;2023-07-08T19:20:01;4.00;;;3.53;;
5195;SDS011;2617;51.006;12.436;2023-07-08T19:25:04;4.70;;;3.80;;
5195;SDS011;2617;51.006;12.436;2023-07-08T19:30:08;5.80;;;4.33;;
5195;SDS011;2617;51.006;12.436;2023-07-08T19:35:11;5.30;;;3.35;;
5195;SDS011;2617;51.006;12.436;2023-07-08T19:40:13;7.57;;;4.17;;
5195;SDS011;2617;51.006;12.436;2023-07-08T19:45:21;9.20;;;4.40;;
5195;SDS011;2617;51.006;12.436;2023-07-08T19:50:23;6.13;;;4.03;;
5195;SDS011;2617;51.006;12.436;2023-07-08T19:55:24;6.10;;;5.03;;
5195;SDS011;2617;51.006;12.436;2023-07-08T20:00:27;7.03;;;4.35;;
5195;SDS011;2617;51.006;12.436;2023-07-08T20:05:41;5.73;;;4.30;;
5195;SDS011;2617;51.006;12.436;2023-07-08T20:10:42;7.30;;;4.30;;
5195;SDS011;2617;51.006;12.436;2023-07-08T20:15:44;6.32;;;4.80;;
5195;SDS011;2617;51.006;12.436;2023-07-08T20:20:46;12.47;;;6.83;;
5195;SDS011;2617;51.006;12.436;2023-07-08T20:25:48;12.53;;;6.17;;
5195;SDS011;2617;51.006;12.436;2023-07-08T20:30:49;11.80;;;5.87;;
5195;SDS011;2617;51.006;12.436;2023-07-08T20:35:51;6.00;;;4.68;;
5195;SDS011;2617;51.006;12.436;2023-07-08T20:40:53;7.17;;;5.00;;
5195;SDS011;2617;51.006;12.436;2023-07-08T20:45:55;6.33;;;4.50;;
5195;SDS011;2617;51.006;12.436;2023-07-08T20:50:57;5.87;;;4.77;;
5195;SDS011;2617;51.006;12.436;2023-07-08T20:55:58;13.68;;;5.18;;
5195;SDS011;2617;51.006;12.436;2023-07-08T21:01:00;6.27;;;4.80;;
5195;SDS011;2617;51.006;12.436;2023-07-08T21:06:03;6.90;;;5.63;;
5195;SDS011;2617;51.006;12.436;2023-07-08T21:11:06;6.87;;;5.73;;
5195;SDS011;2617;51.006;12.436;2023-07-08T21:16:14;7.73;;;6.10;;
5195;SDS011;2617;51.006;12.436;2023-07-08T21:21:15;10.27;;;6.78;;
5195;SDS011;2617;51.006;12.436;2023-07-08T21:26:19;8.17;;;5.33;;
5195;SDS011;2617;51.006;12.436;2023-07-08T21:31:22;8.50;;;5.87;;
5195;SDS011;2617;51.006;12.436;2023-07-08T21:36:28;8.05;;;6.05;;
5195;SDS011;2617;51.006;12.436;2023-07-08T21:41:30;6.97;;;6.27;;
5195;SDS011;2617;51.006;12.436;2023-07-08T21:46:31;8.20;;;6.17;;
5195;SDS011;2617;51.006;12.436;2023-07-08T21:51:34;8.90;;;6.33;;
5195;SDS011;2617;51.006;12.436;2023-07-08T21:56:36;7.77;;;6.30;;
5195;SDS011;2617;51.006;12.436;2023-07-08T22:01:38;8.53;;;6.50;;
5195;SDS011;2617;51.006;12.436;2023-07-08T22:06:40;9.63;;;7.07;;
5195;SDS011;2617;51.006;12.436;2023-07-08T22:11:42;9.13;;;7.13;;
5195;SDS011;2617;51.006;12.436;2023-07-08T22:16:44;12.90;;;6.17;;
5195;SDS011;2617;51.006;12.436;2023-07-08T22:21:46;9.80;;;6.12;;
5195;SDS011;2617;51.006;12.436;2023-07-08T22:26:48;9.47;;;7.13;;
5195;SDS011;2617;51.006;12.436;2023-07-08T22:31:50;6.33;;;5.50;;
5195;SDS011;2617;51.006;12.436;2023-07-08T22:36:52;6.80;;;6.00;;
5195;SDS011;2617;51.006;12.436;2023-07-08T22:41:53;7.67;;;5.70;;
5195;SDS011;2617;51.006;12.436;2023-07-08T22:46:55;6.47;;;5.37;;
5195;SDS011;2617;51.006;12.436;2023-07-08T22:51:58;6.82;;;5.60;;
5195;SDS011;2617;51.006;12.436;2023-07-08T22:57:01;6.97;;;5.18;;
5195;SDS011;2617;51.006;12.436;2023-07-08T23:02:02;7.97;;;5.67;;
5195;SDS011;2617;51.006;12.436;2023-07-08T23:07:04;8.47;;;5.70;;
5195;SDS011;2617;51.006;12.436;2023-07-08T23:12:07;9.80;;;5.17;;
5195;SDS011;2617;51.006;12.436;2023-07-08T23:17:11;8.17;;;5.07;;
5195;SDS011;2617;51.006;12.436;2023-07-08T23:22:15;7.77;;;5.80;;
5195;SDS011;2617;51.006;12.436;2023-07-08T23:27:17;7.50;;;5.90;;
5195;SDS011;2617;51.006;12.436;2023-07-08T23:32:17;7.13;;;5.33;;
5195;SDS011;2617;51.006;12.436;2023-07-08T23:37:20;8.00;;;5.87;;
5195;SDS011;2617;51.006;12.436;2023-07-08T23:42:21;6.90;;;5.67;;
5195;SDS011;2617;51.006;12.436;2023-07-08T23:47:24;7.43;;;6.35;;
5195;SDS011;2617;51.006;12.436;2023-07-08T23:52:25;6.60;;;5.77;;
5195;SDS011;2617;51.006;12.436;2023-07-08T23:57:27;12.20;;;5.90;;
